Latest Coastal Weather Observations for Port Hedland

IDW60701

Issued at 9:12 am WST Sunday 26 April 2015 (issued every 10 minutes, with the page automatically refreshed every 10 minutes)

About coastal observations | Map of coastal stations | Coastal observations for WA | Marine services | Other Formats
Station Details ID: 004032 Name: PORT HEDLAND AIRPORT Lat: -20.37 Lon: 118.63 Height: 6.4 m
Data from the previous 72 hours. | See also: Recent months at Port Hedland
Date/Time
WST
Temp

°C
Wind Pressure Rain
since 9am
mm
Weather Cloud Vis
km
Sea
Height
m
Swell
Dir
 
Speed
knots
Gust
knots
hPa Trend Height
m
Period
s
Dir
26/09:00am 25.1 E 20 28 1016.3 - 0.0 - - 10 - - - -
26/08:30am 24.7 ESE 17 26 1016.4 - 0.0 - - 10 - - - -
26/08:00am 24.3 ESE 19 28 1016.1 - 0.0 - - 10 - - - -
26/07:30am 24.1 ESE 18 25 1015.7 - 0.0 - - 10 - - - -
26/07:06am 24.1 ESE 17 27 1015.5 - 0.0 - - 10 - - - -
26/07:00am 24.1 ESE 18 27 1015.4 - 0.0 - - 10 - - - -
26/06:30am 24.4 ESE 18 26 1015.2 - 0.0 - Partly cloudy 10 - - - -
26/06:00am 24.6 ESE 17 24 1014.9 - 0.0 - Cloudy 10 - - - -
26/05:30am 24.9 ESE 17 24 1014.7 - 0.0 - Partly cloudy 10 - - - -
26/05:00am 25.2 ESE 17 27 1014.5 - 0.0 - Cloudy 10 - - - -
26/04:47am 25.3 ESE 17 27 1014.4 - 0.0 - Cloudy 10 - - - -
26/04:30am 25.3 ESE 17 25 1014.4 - 0.0 - Cloudy 10 - - - -
26/04:00am 25.4 ESE 15 21 1014.2 - 0.0 - Cloudy 10 - - - -
26/03:30am 25.4 ESE 15 22 1014.1 - 0.0 - Cloudy 10 - - - -
26/03:00am 25.5 ESE 15 21 1013.9 - 0.0 - Mostly cloudy 10 - - - -
26/02:30am 25.6 ESE 14 21 1014.2 - 0.0 - Partly cloudy 10 - - - -
26/02:00am 25.6 SE 12 15 1014.3 - 0.0 - Partly cloudy 10 - - - -
26/01:30am 25.5 SE 11 14 1014.3 - 0.0 - Cloudy 10 - - - -
26/01:00am 25.5 SE 11 15 1014.6 - 0.0 - Partly cloudy 10 - - - -
26/12:30am 25.5 SE 12 16 1014.7 - 0.0 - Partly cloudy 10 - - - -
26/12:00am 25.5 SE 9 13 1014.8 - 0.0 - Partly cloudy 10 - - - -
 
Date/Time
WST
Temp

°C
Wind Pressure Rain
since 9am
mm
Weather Cloud Vis
km
Sea
Height
m
Swell
Dir
 
Speed
knots
Gust
knots
hPa Trend Height
m
Period
s
Dir
25/11:30pm 25.8 ESE 9 11 1015.2 - 0.0 - Partly cloudy 10 - - - -
25/11:00pm 25.7 SE 9 11 1015.1 - 0.0 - Partly cloudy 10 - - - -
25/10:30pm 25.7 SE 8 11 1015.3 - 0.0 - Partly cloudy 10 - - - -
25/10:00pm 25.9 ESE 10 13 1015.3 - 0.0 - Partly cloudy 10 - - - -
25/09:30pm 26.1 ESE 11 15 1015.6 - 0.0 - Cloudy 10 - - - -
25/09:00pm 25.9 ESE 10 13 1015.4 - 0.0 - Mostly cloudy 10 - - - -
25/08:30pm 25.7 ESE 9 12 1015.4 - 0.0 - Partly cloudy 10 - - - -
25/08:00pm 26.0 ESE 9 12 1015.3 - 0.0 - Cloudy 10 - - - -
25/07:30pm 26.1 ESE 9 12 1015.1 - 0.0 - Cloudy 10 - - - -
25/07:00pm 26.3 ESE 9 11 1014.8 - 0.0 - Cloudy 10 - - - -
25/06:30pm 26.5 ESE 10 14 1014.4 - 0.0 - Cloudy 10 - - - -
25/06:00pm 26.6 ESE 13 19 1014.1 - 0.0 - Cloudy 10 - - - -
25/05:30pm 26.8 ESE 12 16 1013.9 - 0.0 - Cloudy 10 - - - -
25/05:00pm 27.1 ESE 15 20 1013.7 - 0.0 - Cloudy 10 - - - -
25/04:30pm 27.8 ESE 17 23 1013.2 - 0.0 - Cloudy 10 - - - -
25/04:00pm 28.0 ESE 16 22 1013.0 - 0.0 - Partly cloudy 10 - - - -
25/03:30pm 27.5 ESE 17 23 1013.0 - 0.0 - Cloudy 10 - - - -
25/03:00pm 28.1 ESE 15 23 1012.9 - 0.0 - Mostly cloudy 10 - - - -
25/02:30pm 28.6 ESE 17 22 1012.9 - 0.0 - Partly cloudy 10 - - - -
25/02:00pm 28.4 ESE 18 23 1013.1 - 0.0 - Partly cloudy 10 - - - -
25/01:30pm 28.6 ESE 17 22 1013.2 - 0.0 - Partly cloudy 10 - - - -
25/01:00pm 28.1 ESE 16 20 1013.6 - 0.0 - Cloudy 10 - - - -
25/12:30pm 28.0 ESE 17 24 1013.7 - 0.0 - Partly cloudy 10 - - - -
25/12:00pm 28.8 ESE 19 26 1013.9 - 0.0 - - 10 - - - -
25/11:30am 28.3 ESE 19 27 1014.3 - 0.0 - - 10 - - - -
25/11:00am 27.3 ESE 19 26 1014.6 - 0.0 - - 10 - - - -
25/10:30am 26.8 ESE 19 25 1015.1 - 0.0 - - 10 - - - -
25/10:00am 26.0 ESE 19 26 1015.3 - 0.0 - Partly cloudy 10 - - - -
25/09:49am 25.6 ESE 19 29 1015.4 - 0.0 - Partly cloudy 10 - - - -
25/09:30am 25.1 ESE 22 29 1015.3 - 0.0 - Partly cloudy 10 - - - -
25/09:09am 24.8 ESE 21 31 1015.3 - 0.0 - Partly cloudy 10 - - - -
25/09:00am 25.2 ESE 24 32 1015.0 - 0.0 - Mostly cloudy 10 - - - -
25/08:30am 24.4 ESE 22 29 1015.2 - 0.0 - Partly cloudy 10 - - - -
25/08:00am 24.4 ESE 18 28 1015.0 - 0.0 - Partly cloudy 10 - - - -
25/07:35am 23.9 ESE 18 28 1014.9 - 0.0 - Partly cloudy 10 - - - -
25/07:30am 24.0 ESE 17 26 1014.9 - 0.0 - Partly cloudy 10 - - - -
25/07:00am 23.6 ESE 17 24 1014.4 - 0.0 - Cloudy 10 - - - -
25/06:30am 23.7 ESE 17 27 1013.8 - 0.0 - Partly cloudy 10 - - - -
25/06:21am 23.8 ESE 17 27 1013.8 - 0.0 - Partly cloudy 10 - - - -
25/06:00am 23.9 ESE 16 23 1013.3 - 0.0 - Cloudy 10 - - - -
25/05:30am 24.2 ESE 15 20 1013.2 - 0.0 - Cloudy 10 - - - -
25/05:00am 24.3 ESE 14 21 1013.0 - 0.0 - Cloudy 10 - - - -
25/04:30am 24.5 ESE 15 22 1012.9 - 0.0 - Partly cloudy 10 - - - -
25/04:00am 24.4 ESE 13 18 1012.8 - 0.0 - Cloudy 10 - - - -
25/03:30am 23.9 ESE 8 11 1013.0 - 0.0 - Partly cloudy 10 - - - -
25/03:00am 24.1 ESE 8 11 1013.0 - 0.0 - Cloudy 10 - - - -
25/02:30am 24.6 ESE 11 15 1013.2 - 0.0 - Cloudy 10 - - - -
25/02:00am 24.7 ESE 13 17 1013.2 - 0.0 - Cloudy 10 - - - -
25/01:30am 24.8 E 11 14 1013.1 - 0.0 - Cloudy 10 - - - -
25/01:00am 25.0 E 11 14 1013.3 - 0.0 - Cloudy 10 - - - -
25/12:30am 25.1 E 9 13 1013.6 - 0.0 - Cloudy 10 - - - -
25/12:00am 25.2 ESE 9 12 1013.3 - 0.0 - Mostly cloudy 10 - - - -
 
Date/Time
WST
Temp

°C
Wind Pressure Rain
since 9am
mm
Weather Cloud Vis
km
Sea
Height
m
Swell
Dir
 
Speed
knots
Gust
knots
hPa Trend Height
m
Period
s
Dir
24/11:30pm 25.3 ESE 9 13 1013.5 - 0.0 - Cloudy 10 - - - -
24/11:00pm 25.4 ESE 10 13 1013.5 - 0.0 - Cloudy 10 - - - -
24/10:30pm 24.9 ESE 9 11 1013.6 - 0.0 - Cloudy 10 - - - -
24/10:00pm 23.7 ESE 7 9 1013.6 - 0.0 - Partly cloudy 10 - - - -
24/09:30pm 23.9 SE 7 9 1013.7 - 0.0 - - 10 - - - -
24/09:00pm 24.3 SE 7 9 1013.7 - 0.0 - Mostly clear 10 - - - -
24/08:30pm 24.6 SE 7 10 1013.8 - 0.0 - - 10 - - - -
24/08:00pm 25.0 SE 8 9 1013.5 - 0.0 - Partly cloudy 10 - - - -
24/07:30pm 25.2 SE 8 11 1013.3 - 0.0 - Partly cloudy 10 - - - -
24/07:00pm 25.5 SE 9 12 1013.2 - 0.0 - Partly cloudy 10 - - - -
24/06:30pm 26.2 ESE 11 16 1012.9 - 0.0 - Partly cloudy 10 - - - -
24/06:00pm 26.6 ESE 12 17 1012.6 - 0.0 - Mostly cloudy 10 - - - -
24/05:30pm 27.1 ESE 15 19 1012.4 - 0.0 - Cloudy 10 - - - -
24/05:00pm 27.8 SE 14 21 1012.2 - 0.0 - Partly cloudy 10 - - - -
24/04:30pm 27.9 SE 16 22 1012.1 - 0.0 - Partly cloudy 10 - - - -
24/04:00pm 28.1 ESE 17 23 1012.0 - 0.0 - Partly cloudy 10 - - - -
24/03:30pm 29.0 ESE 17 24 1011.7 - 0.0 - Partly cloudy 10 - - - -
24/03:00pm 28.8 ESE 16 25 1011.5 - 0.0 - Mostly cloudy 10 - - - -
24/02:30pm 28.5 ESE 17 23 1011.7 - 0.0 - Partly cloudy 10 - - - -
24/02:00pm 28.8 ESE 17 24 1011.7 - 0.0 - Cloudy 10 - - - -
24/01:30pm 28.7 ESE 17 25 1011.8 - 0.0 - Partly cloudy 10 - - - -
24/01:00pm 28.4 ESE 18 25 1012.1 - 0.0 - Partly cloudy 10 - - - -
24/12:30pm 28.2 ESE 17 23 1012.4 - 0.0 - Partly cloudy 10 - - - -
24/12:00pm 27.4 ESE 19 25 1012.7 - 0.0 - Mostly cloudy 10 - - - -
24/11:30am 27.2 ESE 15 21 1013.2 - 0.0 - Cloudy 10 - - - -
24/11:00am 26.1 ESE 19 26 1013.6 - 0.0 - Cloudy 10 - - - -
24/10:30am 25.8 ESE 19 26 1014.0 - 0.0 - Cloudy 10 - - - -
24/10:00am 25.3 ESE 19 28 1014.2 - 0.0 - Cloudy 10 - - - -
24/09:30am 24.5 ESE 16 25 1014.3 - 0.0 - Cloudy 10 - - - -
24/09:00am 23.6 SE 19 26 1014.0 - 0.0 - Cloudy 10 - - - -
24/08:30am 22.8 ESE 14 21 1014.3 - 0.0 - Cloudy 10 - - - -
24/08:00am 21.8 SE 13 18 1014.0 - 0.0 - Cloudy 10 - - - -
24/07:30am 21.0 SE 14 21 1013.7 - 0.0 - Cloudy 10 - - - -
24/07:00am 20.4 SE 14 21 1013.5 - 0.0 - Cloudy 10 - - - -
24/06:30am 20.2 SE 15 22 1013.2 - 0.0 - Partly cloudy 10 - - - -
24/06:00am 20.9 SE 13 19 1013.0 - 0.0 - Mostly cloudy 10 - - - -
24/05:30am 21.0 SE 13 18 1012.9 - 0.0 - Partly cloudy 10 - - - -
24/05:00am 20.8 ESE 14 20 1012.9 - 0.0 - Partly cloudy 10 - - - -
24/04:30am 21.0 SE 13 21 1012.9 - 0.0 - Cloudy 10 - - - -
24/04:00am 21.2 SE 17 23 1012.8 - 0.0 - Partly cloudy 10 - - - -
24/03:30am 22.0 ESE 16 23 1012.8 - 0.0 - Partly cloudy 10 - - - -
24/03:00am 22.8 ESE 16 22 1012.8 - 0.0 - Mostly cloudy 10 - - - -
24/02:30am 22.7 ESE 17 25 1012.8 - 0.0 - Cloudy 10 - - - -
24/02:21am 22.8 ESE 15 25 1012.8 - 0.0 - Cloudy 10 - - - -
24/02:00am 22.6 ESE 11 16 1012.9 - 0.0 - Partly cloudy 10 - - - -
24/01:30am 22.6 ESE 11 15 1013.1 - 0.0 - Cloudy 10 - - - -
24/01:00am 22.6 SE 11 16 1013.1 - 0.0 - Cloudy 10 - - - -
24/12:30am 22.5 ESE 11 15 1013.3 - 0.0 - Cloudy 10 - - - -
24/12:00am 22.4 ESE 10 13 1013.2 - 0.0 - Cloudy 10 - - - -
 
Date/Time
WST
Temp

°C
Wind Pressure Rain
since 9am
mm
Weather Cloud Vis
km
Sea
Height
m
Swell
Dir
 
Speed
knots
Gust
knots
hPa Trend Height
m
Period
s
Dir
23/11:30pm 22.5 ESE 11 16 1013.4 - 0.0 - Cloudy 10 - - - -
23/11:00pm 22.6 E 10 13 1013.5 - 0.0 - Cloudy 10 - - - -
23/10:30pm 22.8 ESE 13 21 1013.5 - 0.0 - Cloudy 10 - - - -
23/10:01pm 23.3 ESE 17 27 1013.5 - 0.0 - Cloudy 10 - - - -
23/10:00pm 23.3 ESE 18 27 1013.5 - 0.0 - Cloudy 10 - - - -
23/09:58pm 23.3 ESE 17 27 1013.5 - 0.0 - Cloudy 10 - - - -
23/09:30pm 23.6 ESE 15 21 1013.4 - 0.0 - Partly cloudy 10 - - - -
23/09:00pm 23.6 ESE 13 22 1013.1 - 0.0 - Mostly cloudy 10 - - - -
23/08:30pm 23.6 ESE 9 13 1013.1 - 0.0 - Cloudy 10 - - - -
23/08:00pm 23.7 ESE 11 15 1012.9 - 0.0 - Cloudy 10 - - - -
23/07:30pm 23.6 SE 9 13 1012.4 - 0.0 - Partly cloudy 10 - - - -
23/07:00pm 23.6 SE 10 14 1012.3 - 0.0 - Partly cloudy 10 - - - -
23/06:30pm 23.6 SE 8 11 1012.1 - 0.0 - Partly cloudy 10 - - - -
23/06:00pm 23.9 SE 11 16 1011.7 - 0.0 - Mostly clear 10 - - - -
23/05:30pm 24.5 ESE 13 17 1011.6 - 0.0 - - 10 - - - -
23/05:00pm 24.9 ESE 14 19 1011.3 - 0.0 - - 10 - - - -
23/04:30pm 25.6 ESE 15 23 1011.0 - 0.0 - - 10 - - - -
23/04:00pm 25.9 ESE 16 23 1010.9 - 0.0 - Partly cloudy 10 - - - -
23/03:30pm 26.5 ESE 15 23 1010.7 - 0.0 - Cloudy 10 - - - -
23/03:00pm 25.7 ESE 15 21 1010.7 R 0.0 Fine Mostly cloudy 30 - - - -
23/02:30pm 25.3 ESE 15 21 1010.9 - 0.0 - Mostly clear 10 - - - -
23/02:00pm 24.7 SE 14 20 1010.9 - 0.0 - Partly cloudy 10 - - - -
23/01:30pm 24.2 ESE 15 21 1011.3 - 0.0 - Partly cloudy 10 - - - -
23/01:00pm 23.8 SSE 13 20 1011.6 - 0.0 - Partly cloudy 10 - - - -
23/12:30pm 23.4 SE 14 21 1011.8 - 0.0 - Partly cloudy 10 - - - -
23/12:00pm 21.8 ESE 13 18 1012.4 R 0.0 Drizzle Cloudy 20 - - - -
23/11:30am 21.7 ESE 14 21 1012.6 - 0.0 - Mostly clear 10 - - - -
23/11:00am 21.0 ESE 16 21 1013.0 - 0.0 - Mostly clear 10 - - - -
23/10:49am 20.6 SE 14 19 1013.1 - 0.0 - Cloudy 10 - - - -
23/10:30am 20.4 E 15 21 1013.5 - 0.0 Drizzle Partly cloudy 5 - - - -
23/10:00am 20.6 ESE 16 21 1013.5 - 0.0 - Partly cloudy 8 - - - -
23/09:30am 20.6 ESE 15 20 1013.7 - 0.0 - Mostly cloudy 10 - - - -

Other Formats:

Comma delimited format used in spreadsheet applications
http://www.bom.gov.au/fwo/IDW60701/IDW60701.94312.axf

JavaScript Object Notation format (JSON) in row-major order
http://www.bom.gov.au/fwo/IDW60701/IDW60701.94312.json